createdAt,value
2023-05-21T00:01:42.765Z,101386.78
2023-05-21T00:05:50.014Z,101392.13
2023-05-21T00:09:52.921Z,101396.19
2023-05-21T00:13:55.091Z,101387.63
2023-05-21T00:17:57.184Z,101400.97
2023-05-21T00:22:02.230Z,101401.25
2023-05-21T00:26:04.354Z,101384.75
2023-05-21T00:30:07.191Z,101391.78
2023-05-21T00:34:09.228Z,101395.63
2023-05-21T00:38:11.261Z,101378.19
2023-05-21T00:42:18.075Z,101377.22
2023-05-21T00:46:21.307Z,101364.56
2023-05-21T00:50:23.646Z,101360.31
2023-05-21T00:54:25.939Z,101359.41
2023-05-21T00:58:29.223Z,101361.06
2023-05-21T01:02:34.839Z,101356.41
2023-05-21T01:06:37.765Z,101354.13
2023-05-21T01:10:39.814Z,101355.69
2023-05-21T01:14:42.584Z,101344.31
2023-05-21T01:18:45.331Z,101348.91
2023-05-21T01:22:55.293Z,101345.53
2023-05-21T01:27:01.115Z,101339.78
2023-05-21T01:31:16.810Z,101347.66
2023-05-21T01:35:27.800Z,101337.34
2023-05-21T01:39:37.547Z,101346.03
2023-05-21T01:43:42.571Z,101342.69
2023-05-21T01:47:50.141Z,101340.19
2023-05-21T01:51:52.417Z,101340.78
2023-05-21T01:55:54.696Z,101350.03
2023-05-21T01:59:57.883Z,101337.09
2023-05-21T02:04:00.244Z,101341.28
2023-05-21T02:08:02.452Z,101340.91
2023-05-21T02:12:04.767Z,101344.94
2023-05-21T02:16:10.184Z,101341.78
2023-05-21T02:20:13.869Z,101341.84
2023-05-21T02:24:16.750Z,101337.41
2023-05-21T02:28:18.849Z,101336.78
2023-05-21T02:32:21.657Z,101325.84
2023-05-21T02:36:25.320Z,101337.53
2023-05-21T02:40:27.602Z,101336.25
2023-05-21T02:44:30.060Z,101334.41
2023-05-21T02:48:32.297Z,101343.59
2023-05-21T02:52:34.703Z,101337.63
2023-05-21T02:56:36.916Z,101336.91
2023-05-21T03:00:39.256Z,101346.75
2023-05-21T03:04:46.368Z,101344.91
2023-05-21T03:08:48.791Z,101349.63
2023-05-21T03:12:51.006Z,101336.06
2023-05-21T03:16:53.331Z,101338.41
2023-05-21T03:20:55.640Z,101339.91
2023-05-21T03:24:58.252Z,101339.50
2023-05-21T03:29:01.514Z,101331.06
2023-05-21T03:33:04.991Z,101334.75
2023-05-21T03:37:06.804Z,101333.75
2023-05-21T03:41:10.804Z,101319.97
2023-05-21T03:45:13.608Z,101318.41
2023-05-21T03:49:21.251Z,101316.69
2023-05-21T03:53:27.017Z,101315.81
2023-05-21T03:57:29.359Z,101316.81
2023-05-21T04:01:33.009Z,101314.03
2023-05-21T04:05:35.446Z,101316.13
2023-05-21T04:09:37.693Z,101310.53
2023-05-21T04:13:39.840Z,101309.53
2023-05-21T04:17:41.913Z,101314.25
2023-05-21T04:21:45.047Z,101332.47
2023-05-21T04:25:51.023Z,101347.53
2023-05-21T04:29:58.032Z,101377.66
2023-05-21T04:34:00.286Z,101389.47
2023-05-21T04:38:04.095Z,101387.53
2023-05-21T04:42:07.020Z,101409.00
2023-05-21T04:46:09.112Z,101391.31
2023-05-21T04:50:11.977Z,101420.97
2023-05-21T04:54:14.068Z,101431.69
2023-05-21T04:58:18.342Z,101433.22
2023-05-21T05:02:21.355Z,101429.34
2023-05-21T05:06:25.809Z,101429.22
2023-05-21T05:10:27.830Z,101435.44
2023-05-21T05:14:31.122Z,101424.81
2023-05-21T05:18:34.364Z,101437.78
2023-05-21T05:22:36.778Z,101427.63
2023-05-21T05:26:38.864Z,101425.66
2023-05-21T05:30:41.057Z,101432.75
2023-05-21T05:34:53.404Z,101430.19
2023-05-21T05:38:55.754Z,101425.59
2023-05-21T05:42:57.908Z,101431.38
2023-05-21T05:47:00.168Z,101426.94
2023-05-21T05:51:03.257Z,101420.16
2023-05-21T05:55:08.947Z,101429.41
2023-05-21T05:59:11.223Z,101427.94
2023-05-21T06:03:14.586Z,101426.91
2023-05-21T06:07:17.868Z,101421.59
2023-05-21T06:11:20.043Z,101422.22
2023-05-21T06:15:22.346Z,101428.66
2023-05-21T06:19:24.579Z,101415.31
2023-05-21T06:23:27.254Z,101427.91
2023-05-21T06:27:30.740Z,101423.28
2023-05-21T06:31:34.292Z,101418.38
2023-05-21T06:35:37.491Z,101416.13
2023-05-21T06:39:39.985Z,101414.94
2023-05-21T06:43:42.083Z,101414.63
2023-05-21T06:48:02.779Z,101417.53
2023-05-21T06:52:05.515Z,101409.91
2023-05-21T06:56:08.283Z,101407.88
2023-05-21T07:00:12.511Z,101395.44
2023-05-21T07:04:16.047Z,101394.59
2023-05-21T07:08:22.709Z,101394.88
2023-05-21T07:12:25.446Z,101394.31
2023-05-21T07:16:27.609Z,101389.31
2023-05-21T07:20:30.020Z,101389.41
2023-05-21T07:24:35.338Z,101387.28
2023-05-21T07:28:37.542Z,101386.69
2023-05-21T07:32:40.059Z,101378.97
2023-05-21T07:36:41.809Z,101373.41
2023-05-21T07:40:44.273Z,101383.53
2023-05-21T07:44:47.417Z,101375.66
2023-05-21T07:48:50.119Z,101382.41
2023-05-21T07:52:52.234Z,101376.09
2023-05-21T07:56:55.442Z,101375.16
2023-05-21T08:01:20.134Z,101381.22
2023-05-21T08:05:24.380Z,101375.59
2023-05-21T08:09:26.750Z,101379.16
2023-05-21T08:13:29.001Z,101377.22
2023-05-21T08:17:31.942Z,101375.50
2023-05-21T08:21:34.599Z,101376.59
2023-05-21T08:25:37.099Z,101370.38
2023-05-21T08:29:40.400Z,101367.97
2023-05-21T08:33:51.588Z,101362.91
2023-05-21T08:37:56.832Z,101367.59
2023-05-21T08:42:39.505Z,101364.97
2023-05-21T08:46:45.501Z,101357.41
2023-05-21T08:50:48.027Z,101359.56
2023-05-21T08:54:56.823Z,101357.88
2023-05-21T08:58:59.553Z,101361.28
2023-05-21T09:03:10.497Z,101365.84
2023-05-21T09:07:15.669Z,101364.59
2023-05-21T09:11:37.282Z,101358.06
2023-05-21T09:15:39.845Z,101358.06
2023-05-21T09:20:09.664Z,101351.41
2023-05-21T09:24:12.421Z,101344.56
2023-05-21T09:28:17.093Z,101349.28
2023-05-21T09:32:19.259Z,101342.31
2023-05-21T09:36:21.999Z,101335.19
2023-05-21T09:40:24.725Z,101335.75
2023-05-21T09:44:27.084Z,101331.78
2023-05-21T09:48:36.552Z,101328.78
2023-05-21T09:52:42.142Z,101325.13
2023-05-21T09:56:44.552Z,101331.50
2023-05-21T10:00:46.821Z,101328.25
2023-05-21T10:04:50.538Z,101318.97
2023-05-21T10:08:56.747Z,101311.00
2023-05-21T10:13:01.395Z,101313.22
2023-05-21T10:17:06.354Z,101317.41
2023-05-21T10:21:08.850Z,101330.56
2023-05-21T10:25:14.329Z,101323.22
2023-05-21T10:29:19.636Z,101323.03
2023-05-21T10:33:24.970Z,101318.75
2023-05-21T10:37:27.650Z,101317.59
2023-05-21T10:41:41.171Z,101311.88
2023-05-21T10:46:00.273Z,101309.38
2023-05-21T10:50:31.170Z,101317.72
2023-05-21T10:54:52.953Z,101310.56
2023-05-21T10:59:15.391Z,101298.88
2023-05-21T11:03:17.751Z,101295.50
2023-05-21T11:07:57.284Z,101305.47
2023-05-21T11:12:00.985Z,101287.41
2023-05-21T11:16:08.129Z,101293.75
2023-05-21T11:20:13.760Z,101286.25
2023-05-21T11:24:20.155Z,101280.66
2023-05-21T11:28:34.247Z,101283.50
2023-05-21T11:32:40.518Z,101286.84
2023-05-21T11:36:50.149Z,101274.75
2023-05-21T11:40:56.365Z,101272.59
2023-05-21T11:45:00.231Z,101263.81
2023-05-21T11:49:03.822Z,101268.75
2023-05-21T11:53:07.638Z,101270.50
2023-05-21T11:57:10.563Z,101273.97
2023-05-21T12:01:24.527Z,101269.09
2023-05-21T12:05:27.196Z,101276.09
2023-05-21T12:09:29.493Z,101261.84
2023-05-21T12:13:32.101Z,101259.66
2023-05-21T12:17:34.316Z,101257.50
2023-05-21T12:21:36.544Z,101256.63
2023-05-21T12:25:38.885Z,101262.16
2023-05-21T12:29:46.097Z,101256.50
2023-05-21T12:33:50.118Z,101249.25
2023-05-21T12:37:52.512Z,101251.09
2023-05-21T12:41:55.010Z,101257.59
2023-05-21T12:45:57.254Z,101255.41
2023-05-21T12:50:01.907Z,101238.84
2023-05-21T12:54:04.368Z,101244.91
2023-05-21T12:58:09.107Z,101239.50
2023-05-21T13:02:16.228Z,101244.59
2023-05-21T13:06:18.555Z,101244.25
2023-05-21T13:10:21.604Z,101236.47
2023-05-21T13:14:23.676Z,101242.97
2023-05-21T13:18:26.265Z,101227.75
2023-05-21T13:22:28.455Z,101222.88
2023-05-21T13:26:30.476Z,101214.66
2023-05-21T13:30:35.917Z,101220.53
2023-05-21T13:34:38.056Z,101224.91
2023-05-21T13:38:40.197Z,101221.50
2023-05-21T13:42:44.072Z,101229.06
2023-05-21T13:46:46.365Z,101222.19
2023-05-21T13:50:48.613Z,101217.00
2023-05-21T13:54:50.955Z,101217.50
2023-05-21T13:58:52.994Z,101216.81
2023-05-21T14:02:55.416Z,101210.25
2023-05-21T14:06:57.716Z,101212.63
2023-05-21T14:11:00.338Z,101213.13
2023-05-21T14:15:03.124Z,101214.81
2023-05-21T14:19:05.892Z,101213.81
2023-05-21T14:23:09.420Z,101209.13
2023-05-21T14:27:13.894Z,101220.47
2023-05-21T14:31:17.280Z,101209.03
2023-05-21T14:35:19.402Z,101206.44
2023-05-21T14:39:21.530Z,101211.53
2023-05-21T14:43:23.844Z,101208.50
2023-05-21T14:47:26.117Z,101204.91
2023-05-21T14:51:28.351Z,101198.06
2023-05-21T14:55:30.857Z,101193.69
2023-05-21T14:59:33.056Z,101198.09
2023-05-21T15:03:35.263Z,101190.31
2023-05-21T15:07:37.725Z,101188.47
2023-05-21T15:11:40.178Z,101187.16
2023-05-21T15:15:42.682Z,101182.53
2023-05-21T15:19:44.905Z,101181.84
2023-05-21T15:23:47.006Z,101189.63
2023-05-21T15:27:50.575Z,101185.09
2023-05-21T15:31:52.953Z,101182.41
2023-05-21T15:35:55.122Z,101180.44
2023-05-21T15:39:57.323Z,101176.34
2023-05-21T15:43:59.547Z,101178.50
2023-05-21T15:48:01.655Z,101174.41
2023-05-21T15:52:03.978Z,101172.94
2023-05-21T15:56:06.452Z,101181.19
2023-05-21T16:00:09.950Z,101184.13
2023-05-21T16:04:12.347Z,101176.97
2023-05-21T16:08:14.736Z,101178.53
2023-05-21T16:12:17.158Z,101176.00
2023-05-21T16:16:21.762Z,101177.47
2023-05-21T16:20:25.235Z,101177.84
2023-05-21T16:24:27.489Z,101178.72
2023-05-21T16:28:30.339Z,101174.84
2023-05-21T16:32:33.056Z,101177.06
2023-05-21T16:36:37.434Z,101176.28
2023-05-21T16:40:40.402Z,101182.44
2023-05-21T16:44:42.524Z,101173.19
2023-05-21T16:48:44.667Z,101183.75
2023-05-21T16:52:46.914Z,101187.16
2023-05-21T16:56:49.076Z,101176.63
2023-05-21T17:00:51.343Z,101179.03
2023-05-21T17:04:53.675Z,101181.75
2023-05-21T17:08:56.036Z,101182.84
2023-05-21T17:12:59.957Z,101181.34
2023-05-21T17:17:06.888Z,101182.66
2023-05-21T17:21:09.618Z,101181.84
2023-05-21T17:25:11.927Z,101175.34
2023-05-21T17:29:14.029Z,101178.84
2023-05-21T17:33:16.226Z,101174.44
2023-05-21T17:37:18.383Z,101182.75
2023-05-21T17:41:21.781Z,101179.19
2023-05-21T17:45:23.826Z,101177.59
2023-05-21T17:49:25.979Z,101170.31
2023-05-21T17:53:28.161Z,101169.19
2023-05-21T17:57:30.249Z,101168.56
2023-05-21T18:01:33.683Z,101166.84
2023-05-21T18:05:36.330Z,101167.16
2023-05-21T18:09:39.228Z,101166.63
2023-05-21T18:13:41.346Z,101168.47
2023-05-21T18:17:43.810Z,101179.94
2023-05-21T18:21:48.889Z,101183.66
2023-05-21T18:25:50.997Z,101172.66
2023-05-21T18:29:53.193Z,101178.00
2023-05-21T18:33:55.350Z,101182.47
2023-05-21T18:37:57.987Z,101181.56
2023-05-21T18:42:12.252Z,101185.44
2023-05-21T18:46:16.007Z,101189.84
2023-05-21T18:50:19.446Z,101181.72
2023-05-21T18:54:21.625Z,101180.66
2023-05-21T18:58:23.743Z,101176.97
2023-05-21T19:02:26.988Z,101168.59
2023-05-21T19:06:29.105Z,101173.44
2023-05-21T19:10:32.548Z,101166.09
2023-05-21T19:14:35.123Z,101162.59
2023-05-21T19:18:37.271Z,101174.88
2023-05-21T19:22:39.528Z,101168.97
2023-05-21T19:26:41.628Z,101174.66
2023-05-21T19:30:44.263Z,101164.97
2023-05-21T19:34:46.808Z,101131.00
2023-05-21T19:38:50.011Z,101144.81
2023-05-21T19:42:52.198Z,101134.09
2023-05-21T19:46:54.505Z,101141.53
2023-05-21T19:50:57.151Z,101134.78
2023-05-21T19:55:04.612Z,101144.13
2023-05-21T19:59:06.907Z,101128.84
2023-05-21T20:03:09.818Z,101118.78
2023-05-21T20:07:13.571Z,101107.59
2023-05-21T20:11:15.790Z,101108.16
2023-05-21T20:15:18.388Z,101083.16
2023-05-21T20:19:22.895Z,101097.66
2023-05-21T20:23:25.079Z,101084.28
2023-05-21T20:27:27.978Z,101095.28
2023-05-21T20:31:30.426Z,101084.44
2023-05-21T20:35:32.523Z,101077.19
2023-05-21T20:39:37.220Z,101084.41
2023-05-21T20:43:39.592Z,101075.09
2023-05-21T20:47:42.701Z,101084.03
2023-05-21T20:51:45.069Z,101091.72
2023-05-21T20:55:47.350Z,101077.28
2023-05-21T20:59:52.213Z,101080.09
2023-05-21T21:03:54.340Z,101083.09
2023-05-21T21:07:56.435Z,101070.28
2023-05-21T21:12:06.309Z,101059.25
2023-05-21T21:16:11.370Z,101058.94
2023-05-21T21:20:13.788Z,101054.78
2023-05-21T21:24:15.946Z,101047.31
2023-05-21T21:28:18.859Z,101045.13
2023-05-21T21:32:21.131Z,101046.91
2023-05-21T21:36:24.408Z,101048.09
2023-05-21T21:40:27.355Z,101043.09
2023-05-21T21:44:29.499Z,101040.28
2023-05-21T21:48:31.664Z,101038.50
2023-05-21T21:52:33.681Z,101038.06
2023-05-21T21:56:36.111Z,101026.34
2023-05-21T22:00:38.234Z,101024.66
2023-05-21T22:04:40.571Z,101024.81
2023-05-21T22:08:42.772Z,101035.34
2023-05-21T22:12:46.107Z,101038.06
2023-05-21T22:16:48.458Z,101028.72
2023-05-21T22:20:51.378Z,101030.50
2023-05-21T22:24:53.729Z,101029.16
2023-05-21T22:28:56.348Z,101024.06
2023-05-21T22:32:58.455Z,101031.06
2023-05-21T22:37:01.156Z,101031.13
2023-05-21T22:41:03.703Z,101032.25
2023-05-21T22:45:06.758Z,101029.00
2023-05-21T22:49:10.232Z,101034.97
2023-05-21T22:53:12.972Z,101029.94
2023-05-21T22:57:15.432Z,101029.31
2023-05-21T23:01:17.539Z,101028.94
2023-05-21T23:05:19.850Z,101032.81
2023-05-21T23:09:21.968Z,101032.97
2023-05-21T23:13:23.992Z,101026.34
2023-05-21T23:17:26.390Z,101024.03
2023-05-21T23:21:28.645Z,101026.75
2023-05-21T23:25:30.846Z,101019.94
2023-05-21T23:29:32.927Z,101021.13
2023-05-21T23:33:34.917Z,101023.19
2023-05-21T23:37:37.110Z,101017.38
2023-05-21T23:41:39.313Z,101019.13
2023-05-21T23:45:41.698Z,101024.47
2023-05-21T23:49:43.739Z,101020.44
2023-05-21T23:53:45.979Z,101020.38
2023-05-21T23:57:48.006Z,101018.91
